Ryouei Maru — JL6703 — position and weather

sailwx.info

Track history (hours):
 
Tides and Currents Weather Stations Pressure Air Temp Water Temp Dewpoint Dewpoint Depression Visibility Wind Speed Wind Dir Waves Ship Positions

Ryouei Maru

Last reported at 2014-Sep-01 00:29 UTC. Time now 2014-Sep-01 21:09 UTC.
Position N 36°51' E 141°04'.

Length 95 m; draft 5 m.

Type: Cargo ship. MMSI: 431501749.

Date/timePositionNaut miles runAvg speedWind from/ knotsBaromVisibWave heightAir tempDewpointWater temp
2014-Sep-01 00:29N 36°51' E 141°04'1212.5
2014-Aug-31 23:31N 36°39' E 141°04'1512.5
2014-Aug-31 22:17N 36°24' E 141°02'912.0
2014-Aug-31 21:33N 36°15' E 141°01'1211.9
2014-Aug-31 20:33N 36°03' E 140°59'1312.3
2014-Aug-31 19:28N 35°50' E 140°57'1111.8
2014-Aug-31 18:33N 35°39' E 140°55'1212.1
2014-Aug-31 17:33N 35°30' E 140°46'1312.5
2014-Aug-31 16:30N 35°19' E 140°37'1212.1
2014-Aug-31 15:31N 35°09' E 140°29'1212.8
2014-Aug-31 14:33N 35°01' E 140°18'1313.1
2014-Aug-31 13:33N 34°54' E 140°04'1312.0
2014-Aug-31 12:26N 34°47' E 139°50'6312.2
2014-Aug-31 07:16N 34°32' E 138°35'18110.2
2014-Aug-30 13:32N 34°01' E 134°59'1614.0
2014-Aug-30 12:25N 34°16' E 134°58'1112.5
2014-Aug-30 11:33N 34°26' E 135°04'1413.8
2014-Aug-30 10:33N 34°35' E 135°17'7 7.1
2014-Aug-30 09:33N 34°37' E 135°26'0 0.0
2014-Aug-30 08:33N 34°37' E 135°26'0 0.0
2014-Aug-30 07:33N 34°37' E 135°26'0 0.0
2014-Aug-30 06:33N 34°37' E 135°26'0 0.0
2014-Aug-30 05:27N 34°37' E 135°26'0 0.0
2014-Aug-30 04:15N 34°37' E 135°26'0 0.0
2014-Aug-30 03:33N 34°37' E 135°26'0 0.0
2014-Aug-30 02:33N 34°37' E 135°26'0 0.0
2014-Aug-30 01:26N 34°37' E 135°26'0 0.1
2014-Aug-30 00:29N 34°37' E 135°26'0 0.0
2014-Aug-29 23:29N 34°37' E 135°26'0 0.0
2014-Aug-29 22:33N 34°37' E 135°26'5 5.2
2014-Aug-29 21:33N 34°36' E 135°19'1 1.1
2014-Aug-29 20:32N 34°35' E 135°18'0 0.0
2014-Aug-29 19:32N 34°35' E 135°18'0 0.0
2014-Aug-29 18:32N 34°35' E 135°18'1 0.9
2014-Aug-29 17:33N 34°34' E 135°18'1212.2
2014-Aug-29 16:33N 34°25' E 135°08'1212.0
2014-Aug-29 15:33N 34°16' E 134°59'1312.7
2014-Aug-29 14:33N 34°03' E 135°00'23211.1
2014-Aug-28 17:33N 34°42' E 139°38'1413.4
2014-Aug-28 16:32N 34°49' E 139°52'1313.5
2014-Aug-28 15:33N 34°55' E 140°06'1512.9
2014-Aug-28 14:22N 35°03' E 140°22'1113.0
2014-Aug-28 13:32N 35°11' E 140°31'  
2014-Aug-25 16:32N 36°20' E 141°02'1413.5
2014-Aug-25 15:32N 36°06' E 141°01'1413.1
2014-Aug-25 14:31N 35°53' E 140°58'1313.6
2014-Aug-25 13:33N 35°40' E 140°56'1413.8
2014-Aug-25 12:33N 35°29' E 140°46'1713.6
2014-Aug-25 11:16N 35°15' E 140°34'1115.0
2014-Aug-25 10:33N 35°06' E 140°26'1413.7
2014-Aug-25 09:33N 34°58' E 140°12'1413.5
2014-Aug-25 08:33N 34°51' E 139°58'7013.6
2014-Aug-25 03:24N 34°32' E 138°36'18211.4
2014-Aug-24 11:27N 33°58' E 134°60'1112.6
2014-Aug-24 10:33N 34°09' E 134°59'1111.6
2014-Aug-24 09:33N 34°21' E 134°59'1211.8
2014-Aug-24 08:33N 34°29' E 135°09'1212.0
2014-Aug-24 07:33N 34°37' E 135°21'4 3.8
2014-Aug-24 06:33N 34°37' E 135°26'0 0.0
2014-Aug-24 05:33N 34°37' E 135°26'0 0.0
2014-Aug-24 04:27N 34°37' E 135°26'0 0.0
2014-Aug-24 03:33N 34°37' E 135°26'0 0.0
2014-Aug-24 02:33N 34°37' E 135°26'0 0.0
2014-Aug-24 01:27N 34°37' E 135°26'3 3.0
2014-Aug-24 00:33N 34°38' E 135°22'5 4.1
2014-Aug-23 23:20N 34°35' E 135°18'0 0.0
2014-Aug-23 22:32N 34°35' E 135°18'0 0.0
2014-Aug-23 21:32N 34°35' E 135°18'0 0.0
2014-Aug-23 20:32N 34°35' E 135°18'0 0.0
2014-Aug-23 19:32N 34°35' E 135°18'203 7.8
2014-Aug-22 17:33N 34°52' E 139°23'1212.0
2014-Aug-22 16:33N 35°00' E 139°34'1312.6
2014-Aug-22 15:33N 35°10' E 139°44'1111.2
2014-Aug-22 14:33N 35°21' E 139°42'1111.3
2014-Aug-22 13:33N 35°30' E 139°51'8 8.3
2014-Aug-22 12:33N 35°37' E 139°47'0 0.0
2014-Aug-22 11:33N 35°37' E 139°47'0 0.0
2014-Aug-22 10:30N 35°37' E 139°47'0 0.0
2014-Aug-22 09:30N 35°37' E 139°47'0 0.0
2014-Aug-22 08:33N 35°37' E 139°47'0 0.0
2014-Aug-22 07:27N 35°37' E 139°47'0 0.0
2014-Aug-22 06:24N 35°37' E 139°47'0 0.0
2014-Aug-22 05:33N 35°37' E 139°47'0 0.0
2014-Aug-22 04:33N 35°37' E 139°47'0 0.0
2014-Aug-22 03:30N 35°37' E 139°47'0 0.0
2014-Aug-22 02:33N 35°37' E 139°47'0 0.0
2014-Aug-22 01:30N 35°37' E 139°47'0 0.0
2014-Aug-22 00:30N 35°37' E 139°47'  
Track history (hours):
 
Tides and Currents Weather Stations Pressure Air Temp Water Temp Dewpoint Dewpoint Depression Visibility Wind Speed Wind Dir Waves Ship Positions

Ryouei Maru

Last reported at 2014-Sep-01 00:29 UTC. Time now 2014-Sep-01 21:09 UTC.
Position N 36°51' E 141°04'.

Length 95 m; draft 5 m.

Type: Cargo ship. MMSI: 431501749.

Date/timePositionNaut miles runAvg speedWind from/ knotsBaromVisibWave heightAir tempDewpointWater temp
2014-Sep-01 00:29N 36°51' E 141°04'1212.5
2014-Aug-31 23:31N 36°39' E 141°04'1512.5
2014-Aug-31 22:17N 36°24' E 141°02'912.0
2014-Aug-31 21:33N 36°15' E 141°01'1211.9
2014-Aug-31 20:33N 36°03' E 140°59'1312.3
2014-Aug-31 19:28N 35°50' E 140°57'1111.8
2014-Aug-31 18:33N 35°39' E 140°55'1212.1
2014-Aug-31 17:33N 35°30' E 140°46'1312.5
2014-Aug-31 16:30N 35°19' E 140°37'1212.1
2014-Aug-31 15:31N 35°09' E 140°29'1212.8
2014-Aug-31 14:33N 35°01' E 140°18'1313.1
2014-Aug-31 13:33N 34°54' E 140°04'1312.0
2014-Aug-31 12:26N 34°47' E 139°50'6312.2
2014-Aug-31 07:16N 34°32' E 138°35'18110.2
2014-Aug-30 13:32N 34°01' E 134°59'1614.0
2014-Aug-30 12:25N 34°16' E 134°58'1112.5
2014-Aug-30 11:33N 34°26' E 135°04'1413.8
2014-Aug-30 10:33N 34°35' E 135°17'7 7.1
2014-Aug-30 09:33N 34°37' E 135°26'0 0.0
2014-Aug-30 08:33N 34°37' E 135°26'0 0.0
2014-Aug-30 07:33N 34°37' E 135°26'0 0.0
2014-Aug-30 06:33N 34°37' E 135°26'0 0.0
2014-Aug-30 05:27N 34°37' E 135°26'0 0.0
2014-Aug-30 04:15N 34°37' E 135°26'0 0.0
2014-Aug-30 03:33N 34°37' E 135°26'0 0.0
2014-Aug-30 02:33N 34°37' E 135°26'0 0.0
2014-Aug-30 01:26N 34°37' E 135°26'0 0.1
2014-Aug-30 00:29N 34°37' E 135°26'0 0.0
2014-Aug-29 23:29N 34°37' E 135°26'0 0.0
2014-Aug-29 22:33N 34°37' E 135°26'5 5.2
2014-Aug-29 21:33N 34°36' E 135°19'1 1.1
2014-Aug-29 20:32N 34°35' E 135°18'0 0.0
2014-Aug-29 19:32N 34°35' E 135°18'0 0.0
2014-Aug-29 18:32N 34°35' E 135°18'1 0.9
2014-Aug-29 17:33N 34°34' E 135°18'1212.2
2014-Aug-29 16:33N 34°25' E 135°08'1212.0
2014-Aug-29 15:33N 34°16' E 134°59'1312.7
2014-Aug-29 14:33N 34°03' E 135°00'23211.1
2014-Aug-28 17:33N 34°42' E 139°38'1413.4
2014-Aug-28 16:32N 34°49' E 139°52'1313.5
2014-Aug-28 15:33N 34°55' E 140°06'1512.9
2014-Aug-28 14:22N 35°03' E 140°22'1113.0
2014-Aug-28 13:32N 35°11' E 140°31'  
2014-Aug-25 16:32N 36°20' E 141°02'1413.5
2014-Aug-25 15:32N 36°06' E 141°01'1413.1
2014-Aug-25 14:31N 35°53' E 140°58'1313.6
2014-Aug-25 13:33N 35°40' E 140°56'1413.8
2014-Aug-25 12:33N 35°29' E 140°46'1713.6
2014-Aug-25 11:16N 35°15' E 140°34'1115.0
2014-Aug-25 10:33N 35°06' E 140°26'1413.7
2014-Aug-25 09:33N 34°58' E 140°12'1413.5
2014-Aug-25 08:33N 34°51' E 139°58'7013.6
2014-Aug-25 03:24N 34°32' E 138°36'18211.4
2014-Aug-24 11:27N 33°58' E 134°60'1112.6
2014-Aug-24 10:33N 34°09' E 134°59'1111.6
2014-Aug-24 09:33N 34°21' E 134°59'1211.8
2014-Aug-24 08:33N 34°29' E 135°09'1212.0
2014-Aug-24 07:33N 34°37' E 135°21'4 3.8
2014-Aug-24 06:33N 34°37' E 135°26'0 0.0
2014-Aug-24 05:33N 34°37' E 135°26'0 0.0
2014-Aug-24 04:27N 34°37' E 135°26'0 0.0
2014-Aug-24 03:33N 34°37' E 135°26'0 0.0
2014-Aug-24 02:33N 34°37' E 135°26'0 0.0
2014-Aug-24 01:27N 34°37' E 135°26'3 3.0
2014-Aug-24 00:33N 34°38' E 135°22'5 4.1
2014-Aug-23 23:20N 34°35' E 135°18'0 0.0
2014-Aug-23 22:32N 34°35' E 135°18'0 0.0
2014-Aug-23 21:32N 34°35' E 135°18'0 0.0
2014-Aug-23 20:32N 34°35' E 135°18'0 0.0
2014-Aug-23 19:32N 34°35' E 135°18'203 7.8
2014-Aug-22 17:33N 34°52' E 139°23'1212.0
2014-Aug-22 16:33N 35°00' E 139°34'1312.6
2014-Aug-22 15:33N 35°10' E 139°44'1111.2
2014-Aug-22 14:33N 35°21' E 139°42'1111.3
2014-Aug-22 13:33N 35°30' E 139°51'8 8.3
2014-Aug-22 12:33N 35°37' E 139°47'0 0.0
2014-Aug-22 11:33N 35°37' E 139°47'0 0.0
2014-Aug-22 10:30N 35°37' E 139°47'0 0.0
2014-Aug-22 09:30N 35°37' E 139°47'0 0.0
2014-Aug-22 08:33N 35°37' E 139°47'0 0.0
2014-Aug-22 07:27N 35°37' E 139°47'0 0.0
2014-Aug-22 06:24N 35°37' E 139°47'0 0.0
2014-Aug-22 05:33N 35°37' E 139°47'0 0.0
2014-Aug-22 04:33N 35°37' E 139°47'0 0.0
2014-Aug-22 03:30N 35°37' E 139°47'0 0.0
2014-Aug-22 02:33N 35°37' E 139°47'0 0.0
2014-Aug-22 01:30N 35°37' E 139°47'0 0.0
2014-Aug-22 00:30N 35°37' E 139°47'  

Dump ship's entire track history